sensor_id;sensor_type;location;lat;lon;timestamp;P1;durP1;ratioP1;P2;durP2;ratioP2
67861;SDS011;54665;51.462;6.698;2023-04-01T00:00:19;6.27;;;0.90;;
67861;SDS011;54665;51.462;6.698;2023-04-01T00:02:45;3.15;;;0.80;;
67861;SDS011;54665;51.462;6.698;2023-04-01T00:05:11;5.95;;;1.13;;
67861;SDS011;54665;51.462;6.698;2023-04-01T00:07:37;4.33;;;0.90;;
67861;SDS011;54665;51.462;6.698;2023-04-01T00:10:05;3.72;;;1.02;;
67861;SDS011;54665;51.462;6.698;2023-04-01T00:12:31;5.75;;;1.02;;
67861;SDS011;54665;51.462;6.698;2023-04-01T00:14:57;5.80;;;1.57;;
67861;SDS011;54665;51.462;6.698;2023-04-01T00:17:22;4.37;;;0.90;;
67861;SDS011;54665;51.462;6.698;2023-04-01T00:19:48;4.07;;;1.00;;
67861;SDS011;54665;51.462;6.698;2023-04-01T00:22:13;3.25;;;1.00;;
67861;SDS011;54665;51.462;6.698;2023-04-01T00:24:38;5.13;;;1.10;;
67861;SDS011;54665;51.462;6.698;2023-04-01T00:27:04;4.13;;;0.70;;
67861;SDS011;54665;51.462;6.698;2023-04-01T00:29:30;2.38;;;0.60;;
67861;SDS011;54665;51.462;6.698;2023-04-01T00:31:57;2.22;;;0.75;;
67861;SDS011;54665;51.462;6.698;2023-04-01T00:34:23;5.20;;;0.90;;
67861;SDS011;54665;51.462;6.698;2023-04-01T00:36:49;2.22;;;0.70;;
67861;SDS011;54665;51.462;6.698;2023-04-01T00:39:15;3.03;;;0.70;;
67861;SDS011;54665;51.462;6.698;2023-04-01T00:41:41;5.45;;;0.75;;
67861;SDS011;54665;51.462;6.698;2023-04-01T00:44:17;3.28;;;0.95;;
67861;SDS011;54665;51.462;6.698;2023-04-01T00:46:45;1.67;;;0.63;;
67861;SDS011;54665;51.462;6.698;2023-04-01T00:49:11;3.60;;;0.77;;
67861;SDS011;54665;51.462;6.698;2023-04-01T00:51:38;3.28;;;0.60;;
67861;SDS011;54665;51.462;6.698;2023-04-01T00:54:05;5.05;;;0.82;;
67861;SDS011;54665;51.462;6.698;2023-04-01T00:56:34;3.53;;;0.80;;
67861;SDS011;54665;51.462;6.698;2023-04-01T00:59:04;3.27;;;0.80;;
67861;SDS011;54665;51.462;6.698;2023-04-01T01:01:35;3.03;;;0.70;;
67861;SDS011;54665;51.462;6.698;2023-04-01T01:04:01;2.55;;;0.60;;
67861;SDS011;54665;51.462;6.698;2023-04-01T01:09:18;3.40;;;0.63;;
67861;SDS011;54665;51.462;6.698;2023-04-01T01:11:54;3.55;;;0.75;;
67861;SDS011;54665;51.462;6.698;2023-04-01T01:14:35;3.25;;;0.75;;
67861;SDS011;54665;51.462;6.698;2023-04-01T01:29:02;2.00;;;0.70;;
67861;SDS011;54665;51.462;6.698;2023-04-01T01:31:58;3.38;;;0.80;;
67861;SDS011;54665;51.462;6.698;2023-04-01T01:37:39;2.67;;;0.70;;
67861;SDS011;54665;51.462;6.698;2023-04-01T01:40:08;3.70;;;0.70;;
67861;SDS011;54665;51.462;6.698;2023-04-01T01:42:37;3.17;;;0.63;;
67861;SDS011;54665;51.462;6.698;2023-04-01T01:45:06;2.47;;;0.70;;
67861;SDS011;54665;51.462;6.698;2023-04-01T01:47:34;1.55;;;0.52;;
67861;SDS011;54665;51.462;6.698;2023-04-01T01:50:01;4.23;;;0.57;;
67861;SDS011;54665;51.462;6.698;2023-04-01T01:52:28;2.70;;;0.60;;
67861;SDS011;54665;51.462;6.698;2023-04-01T01:54:56;1.75;;;0.60;;
67861;SDS011;54665;51.462;6.698;2023-04-01T01:57:26;1.60;;;0.50;;
67861;SDS011;54665;51.462;6.698;2023-04-01T02:00:04;1.63;;;0.47;;
67861;SDS011;54665;51.462;6.698;2023-04-01T02:02:39;2.23;;;0.50;;
67861;SDS011;54665;51.462;6.698;2023-04-01T02:05:07;2.97;;;0.60;;
67861;SDS011;54665;51.462;6.698;2023-04-01T02:07:35;1.23;;;0.60;;
67861;SDS011;54665;51.462;6.698;2023-04-01T02:10:05;2.88;;;0.73;;
67861;SDS011;54665;51.462;6.698;2023-04-01T02:12:31;2.13;;;0.68;;
67861;SDS011;54665;51.462;6.698;2023-04-01T02:15:04;3.43;;;0.70;;
67861;SDS011;54665;51.462;6.698;2023-04-01T02:17:34;2.38;;;0.60;;
67861;SDS011;54665;51.462;6.698;2023-04-01T02:22:44;2.03;;;0.68;;
67861;SDS011;54665;51.462;6.698;2023-04-01T02:25:15;3.30;;;0.65;;
67861;SDS011;54665;51.462;6.698;2023-04-01T02:27:52;1.73;;;0.60;;
67861;SDS011;54665;51.462;6.698;2023-04-01T02:30:20;4.35;;;0.70;;
67861;SDS011;54665;51.462;6.698;2023-04-01T02:32:46;3.80;;;0.70;;
67861;SDS011;54665;51.462;6.698;2023-04-01T02:35:12;2.00;;;0.50;;
67861;SDS011;54665;51.462;6.698;2023-04-01T02:37:40;4.60;;;1.58;;
67861;SDS011;54665;51.462;6.698;2023-04-01T02:40:07;3.28;;;0.90;;
67861;SDS011;54665;51.462;6.698;2023-04-01T02:42:35;3.20;;;0.70;;
67861;SDS011;54665;51.462;6.698;2023-04-01T02:45:01;3.13;;;0.70;;
67861;SDS011;54665;51.462;6.698;2023-04-01T02:47:27;2.78;;;0.70;;
67861;SDS011;54665;51.462;6.698;2023-04-01T02:49:53;2.90;;;0.80;;
67861;SDS011;54665;51.462;6.698;2023-04-01T02:52:23;2.95;;;0.60;;
67861;SDS011;54665;51.462;6.698;2023-04-01T02:54:51;3.25;;;0.60;;
67861;SDS011;54665;51.462;6.698;2023-04-01T02:57:17;3.97;;;0.70;;
67861;SDS011;54665;51.462;6.698;2023-04-01T02:59:42;2.40;;;0.80;;
67861;SDS011;54665;51.462;6.698;2023-04-01T03:02:08;2.22;;;0.80;;
67861;SDS011;54665;51.462;6.698;2023-04-01T03:04:33;2.00;;;0.80;;
67861;SDS011;54665;51.462;6.698;2023-04-01T03:06:59;2.97;;;1.00;;
67861;SDS011;54665;51.462;6.698;2023-04-01T03:09:24;3.73;;;1.17;;
67861;SDS011;54665;51.462;6.698;2023-04-01T03:11:50;4.40;;;1.30;;
67861;SDS011;54665;51.462;6.698;2023-04-01T03:14:15;3.97;;;1.10;;
67861;SDS011;54665;51.462;6.698;2023-04-01T03:16:41;3.93;;;1.20;;
67861;SDS011;54665;51.462;6.698;2023-04-01T03:19:06;2.95;;;0.88;;
67861;SDS011;54665;51.462;6.698;2023-04-01T03:21:32;3.17;;;0.97;;
67861;SDS011;54665;51.462;6.698;2023-04-01T03:23:57;2.53;;;1.20;;
67861;SDS011;54665;51.462;6.698;2023-04-01T03:26:23;5.15;;;1.27;;
67861;SDS011;54665;51.462;6.698;2023-04-01T03:28:49;3.83;;;1.20;;
67861;SDS011;54665;51.462;6.698;2023-04-01T03:31:14;3.92;;;1.20;;
67861;SDS011;54665;51.462;6.698;2023-04-01T03:33:47;2.47;;;1.00;;
67861;SDS011;54665;51.462;6.698;2023-04-01T03:36:12;2.20;;;1.10;;
67861;SDS011;54665;51.462;6.698;2023-04-01T03:38:39;2.67;;;0.90;;
67861;SDS011;54665;51.462;6.698;2023-04-01T03:41:06;2.95;;;0.88;;
67861;SDS011;54665;51.462;6.698;2023-04-01T03:43:32;3.70;;;0.80;;
67861;SDS011;54665;51.462;6.698;2023-04-01T03:45:57;3.47;;;0.90;;
67861;SDS011;54665;51.462;6.698;2023-04-01T03:48:23;3.88;;;1.10;;
67861;SDS011;54665;51.462;6.698;2023-04-01T03:50:50;2.80;;;0.90;;
67861;SDS011;54665;51.462;6.698;2023-04-01T03:53:15;3.27;;;1.00;;
67861;SDS011;54665;51.462;6.698;2023-04-01T03:55:43;3.60;;;0.90;;
67861;SDS011;54665;51.462;6.698;2023-04-01T03:58:09;3.47;;;1.00;;
67861;SDS011;54665;51.462;6.698;2023-04-01T04:00:34;2.08;;;0.90;;
67861;SDS011;54665;51.462;6.698;2023-04-01T04:03:01;3.97;;;1.23;;
67861;SDS011;54665;51.462;6.698;2023-04-01T04:05:30;2.40;;;1.00;;
67861;SDS011;54665;51.462;6.698;2023-04-01T04:07:56;4.35;;;1.15;;
67861;SDS011;54665;51.462;6.698;2023-04-01T04:10:22;3.17;;;1.30;;
67861;SDS011;54665;51.462;6.698;2023-04-01T04:12:49;5.45;;;1.33;;
67861;SDS011;54665;51.462;6.698;2023-04-01T04:15:15;3.15;;;1.15;;
67861;SDS011;54665;51.462;6.698;2023-04-01T04:17:40;3.37;;;1.20;;
67861;SDS011;54665;51.462;6.698;2023-04-01T04:20:06;3.08;;;1.08;;
67861;SDS011;54665;51.462;6.698;2023-04-01T04:22:33;2.70;;;1.05;;
67861;SDS011;54665;51.462;6.698;2023-04-01T04:25:01;2.60;;;1.03;;
67861;SDS011;54665;51.462;6.698;2023-04-01T04:27:28;3.25;;;1.00;;
67861;SDS011;54665;51.462;6.698;2023-04-01T04:30:05;3.58;;;1.40;;
67861;SDS011;54665;51.462;6.698;2023-04-01T04:32:32;5.32;;;1.30;;
67861;SDS011;54665;51.462;6.698;2023-04-01T04:34:57;4.33;;;1.20;;
67861;SDS011;54665;51.462;6.698;2023-04-01T04:37:23;4.57;;;1.37;;
67861;SDS011;54665;51.462;6.698;2023-04-01T04:39:48;7.50;;;1.85;;
67861;SDS011;54665;51.462;6.698;2023-04-01T04:42:14;3.37;;;1.30;;
67861;SDS011;54665;51.462;6.698;2023-04-01T04:44:39;3.57;;;1.40;;
67861;SDS011;54665;51.462;6.698;2023-04-01T04:47:05;4.97;;;1.70;;
67861;SDS011;54665;51.462;6.698;2023-04-01T04:49:30;3.77;;;1.73;;
67861;SDS011;54665;51.462;6.698;2023-04-01T04:51:56;4.30;;;1.50;;
67861;SDS011;54665;51.462;6.698;2023-04-01T04:54:24;5.07;;;1.48;;
67861;SDS011;54665;51.462;6.698;2023-04-01T04:56:53;3.75;;;1.50;;
67861;SDS011;54665;51.462;6.698;2023-04-01T04:59:20;3.93;;;1.60;;
67861;SDS011;54665;51.462;6.698;2023-04-01T05:01:54;3.78;;;1.70;;
67861;SDS011;54665;51.462;6.698;2023-04-01T05:04:20;3.63;;;1.60;;
67861;SDS011;54665;51.462;6.698;2023-04-01T05:06:45;3.83;;;1.80;;
67861;SDS011;54665;51.462;6.698;2023-04-01T05:09:11;3.73;;;1.43;;
67861;SDS011;54665;51.462;6.698;2023-04-01T05:11:36;4.37;;;1.60;;
67861;SDS011;54665;51.462;6.698;2023-04-01T05:14:02;4.33;;;1.80;;
67861;SDS011;54665;51.462;6.698;2023-04-01T05:16:30;4.07;;;1.70;;
67861;SDS011;54665;51.462;6.698;2023-04-01T05:18:57;4.67;;;1.70;;
67861;SDS011;54665;51.462;6.698;2023-04-01T05:21:22;5.55;;;1.90;;
67861;SDS011;54665;51.462;6.698;2023-04-01T05:23:49;4.38;;;1.70;;
67861;SDS011;54665;51.462;6.698;2023-04-01T05:26:14;3.63;;;1.60;;
67861;SDS011;54665;51.462;6.698;2023-04-01T05:28:40;4.23;;;1.67;;
67861;SDS011;54665;51.462;6.698;2023-04-01T05:31:06;4.90;;;1.52;;
67861;SDS011;54665;51.462;6.698;2023-04-01T05:33:42;5.25;;;2.15;;
67861;SDS011;54665;51.462;6.698;2023-04-01T05:36:14;5.43;;;2.57;;
67861;SDS011;54665;51.462;6.698;2023-04-01T05:38:41;5.68;;;2.40;;
67861;SDS011;54665;51.462;6.698;2023-04-01T05:41:09;4.43;;;1.92;;
67861;SDS011;54665;51.462;6.698;2023-04-01T05:43:38;6.40;;;2.70;;
67861;SDS011;54665;51.462;6.698;2023-04-01T05:46:25;5.97;;;2.67;;
67861;SDS011;54665;51.462;6.698;2023-04-01T05:48:57;8.10;;;3.10;;
67861;SDS011;54665;51.462;6.698;2023-04-01T05:51:24;6.82;;;3.00;;
67861;SDS011;54665;51.462;6.698;2023-04-01T05:53:49;7.77;;;3.17;;
67861;SDS011;54665;51.462;6.698;2023-04-01T05:56:17;6.85;;;2.78;;
67861;SDS011;54665;51.462;6.698;2023-04-01T05:58:48;6.53;;;2.90;;
67861;SDS011;54665;51.462;6.698;2023-04-01T06:01:17;6.63;;;2.88;;
67861;SDS011;54665;51.462;6.698;2023-04-01T06:03:43;6.78;;;2.95;;
67861;SDS011;54665;51.462;6.698;2023-04-01T06:06:13;6.33;;;3.00;;
67861;SDS011;54665;51.462;6.698;2023-04-01T06:08:41;6.65;;;2.80;;
67861;SDS011;54665;51.462;6.698;2023-04-01T06:11:12;6.45;;;2.80;;
67861;SDS011;54665;51.462;6.698;2023-04-01T06:17:01;8.13;;;3.05;;
67861;SDS011;54665;51.462;6.698;2023-04-01T06:24:59;6.50;;;2.50;;
67861;SDS011;54665;51.462;6.698;2023-04-01T06:30:00;7.30;;;2.80;;
67861;SDS011;54665;51.462;6.698;2023-04-01T06:36:00;7.32;;;3.13;;
67861;SDS011;54665;51.462;6.698;2023-04-01T06:41:51;7.10;;;3.43;;
67861;SDS011;54665;51.462;6.698;2023-04-01T06:47:23;7.60;;;3.08;;
67861;SDS011;54665;51.462;6.698;2023-04-01T06:50:44;7.75;;;3.10;;
67861;SDS011;54665;51.462;6.698;2023-04-01T06:53:54;7.07;;;2.08;;
67861;SDS011;54665;51.462;6.698;2023-04-01T06:56:49;8.20;;;3.20;;
67861;SDS011;54665;51.462;6.698;2023-04-01T06:59:25;7.45;;;3.50;;
67861;SDS011;54665;51.462;6.698;2023-04-01T07:07:19;7.72;;;3.15;;
67861;SDS011;54665;51.462;6.698;2023-04-01T07:09:57;7.77;;;3.10;;
67861;SDS011;54665;51.462;6.698;2023-04-01T07:12:46;6.95;;;2.53;;
67861;SDS011;54665;51.462;6.698;2023-04-01T07:15:40;7.00;;;3.03;;
67861;SDS011;54665;51.462;6.698;2023-04-01T07:18:11;9.00;;;3.55;;
67861;SDS011;54665;51.462;6.698;2023-04-01T07:20:41;9.07;;;3.70;;
67861;SDS011;54665;51.462;6.698;2023-04-01T07:23:13;7.97;;;3.20;;
67861;SDS011;54665;51.462;6.698;2023-04-01T07:26:06;9.65;;;3.47;;
67861;SDS011;54665;51.462;6.698;2023-04-01T07:29:05;8.60;;;3.83;;
67861;SDS011;54665;51.462;6.698;2023-04-01T07:31:45;7.65;;;3.38;;
67861;SDS011;54665;51.462;6.698;2023-04-01T07:36:55;7.68;;;3.40;;
67861;SDS011;54665;51.462;6.698;2023-04-01T07:45:21;7.68;;;3.58;;
67861;SDS011;54665;51.462;6.698;2023-04-01T07:51:00;6.82;;;2.92;;
67861;SDS011;54665;51.462;6.698;2023-04-01T07:53:38;8.65;;;3.33;;
67861;SDS011;54665;51.462;6.698;2023-04-01T07:56:08;7.80;;;3.38;;
67861;SDS011;54665;51.462;6.698;2023-04-01T08:01:13;7.37;;;3.17;;
67861;SDS011;54665;51.462;6.698;2023-04-01T08:06:49;8.88;;;3.75;;
67861;SDS011;54665;51.462;6.698;2023-04-01T08:09:29;8.23;;;3.55;;
67861;SDS011;54665;51.462;6.698;2023-04-01T08:21:45;7.38;;;2.88;;
67861;SDS011;54665;51.462;6.698;2023-04-01T08:24:19;9.40;;;3.35;;
67861;SDS011;54665;51.462;6.698;2023-04-01T08:26:53;8.07;;;3.20;;
67861;SDS011;54665;51.462;6.698;2023-04-01T08:29:26;6.13;;;2.33;;
67861;SDS011;54665;51.462;6.698;2023-04-01T08:32:25;7.55;;;3.13;;
67861;SDS011;54665;51.462;6.698;2023-04-01T08:35:14;7.85;;;3.05;;
67861;SDS011;54665;51.462;6.698;2023-04-01T08:37:57;7.13;;;2.90;;
67861;SDS011;54665;51.462;6.698;2023-04-01T08:51:41;7.32;;;3.00;;
67861;SDS011;54665;51.462;6.698;2023-04-01T08:54:24;7.97;;;3.22;;
67861;SDS011;54665;51.462;6.698;2023-04-01T08:57:02;9.60;;;3.50;;
67861;SDS011;54665;51.462;6.698;2023-04-01T09:08:01;9.55;;;3.90;;
67861;SDS011;54665;51.462;6.698;2023-04-01T09:14:00;9.48;;;3.35;;
67861;SDS011;54665;51.462;6.698;2023-04-01T09:19:35;6.95;;;2.65;;
67861;SDS011;54665;51.462;6.698;2023-04-01T09:22:34;9.32;;;3.60;;
67861;SDS011;54665;51.462;6.698;2023-04-01T09:27:54;9.00;;;4.15;;
67861;SDS011;54665;51.462;6.698;2023-04-01T09:41:29;9.90;;;4.60;;
67861;SDS011;54665;51.462;6.698;2023-04-01T09:44:18;13.30;;;5.03;;
67861;SDS011;54665;51.462;6.698;2023-04-01T09:47:27;11.55;;;5.18;;
67861;SDS011;54665;51.462;6.698;2023-04-01T10:01:43;12.93;;;5.50;;
67861;SDS011;54665;51.462;6.698;2023-04-01T10:12:29;10.88;;;4.57;;
67861;SDS011;54665;51.462;6.698;2023-04-01T10:17:53;11.35;;;4.65;;
67861;SDS011;54665;51.462;6.698;2023-04-01T10:23:17;13.55;;;5.35;;
67861;SDS011;54665;51.462;6.698;2023-04-01T10:29:06;12.07;;;5.40;;
67861;SDS011;54665;51.462;6.698;2023-04-01T10:49:58;15.53;;;6.40;;
67861;SDS011;54665;51.462;6.698;2023-04-01T10:59:00;16.70;;;6.68;;
67861;SDS011;54665;51.462;6.698;2023-04-01T11:26:33;19.33;;;7.47;;
67861;SDS011;54665;51.462;6.698;2023-04-01T11:50:15;16.23;;;7.30;;
67861;SDS011;54665;51.462;6.698;2023-04-01T11:53:01;15.45;;;6.95;;
67861;SDS011;54665;51.462;6.698;2023-04-01T12:03:58;15.20;;;6.43;;
67861;SDS011;54665;51.462;6.698;2023-04-01T12:09:28;13.98;;;6.40;;
67861;SDS011;54665;51.462;6.698;2023-04-01T12:20:33;12.25;;;5.95;;
67861;SDS011;54665;51.462;6.698;2023-04-01T12:31:52;11.70;;;5.50;;
67861;SDS011;54665;51.462;6.698;2023-04-01T12:37:27;10.95;;;4.68;;
67861;SDS011;54665;51.462;6.698;2023-04-01T12:43:51;9.15;;;4.10;;
67861;SDS011;54665;51.462;6.698;2023-04-01T12:46:31;12.17;;;5.10;;
67861;SDS011;54665;51.462;6.698;2023-04-01T12:52:05;14.38;;;4.95;;
67861;SDS011;54665;51.462;6.698;2023-04-01T12:57:33;13.27;;;5.28;;
67861;SDS011;54665;51.462;6.698;2023-04-01T13:00:09;15.03;;;5.43;;
67861;SDS011;54665;51.462;6.698;2023-04-01T13:08:55;19.27;;;6.05;;
67861;SDS011;54665;51.462;6.698;2023-04-01T13:25:05;14.00;;;6.07;;
67861;SDS011;54665;51.462;6.698;2023-04-01T13:38:18;14.88;;;6.05;;
67861;SDS011;54665;51.462;6.698;2023-04-01T13:41:05;13.37;;;5.40;;
67861;SDS011;54665;51.462;6.698;2023-04-01T13:43:45;15.70;;;5.70;;
67861;SDS011;54665;51.462;6.698;2023-04-01T13:46:41;13.48;;;5.35;;
67861;SDS011;54665;51.462;6.698;2023-04-01T13:51:52;10.65;;;3.92;;
67861;SDS011;54665;51.462;6.698;2023-04-01T14:02:46;13.82;;;6.07;;
67861;SDS011;54665;51.462;6.698;2023-04-01T14:05:24;12.13;;;4.72;;
67861;SDS011;54665;51.462;6.698;2023-04-01T14:11:10;15.00;;;6.20;;
67861;SDS011;54665;51.462;6.698;2023-04-01T14:30:55;14.32;;;6.10;;
67861;SDS011;54665;51.462;6.698;2023-04-01T14:33:45;14.45;;;5.70;;
67861;SDS011;54665;51.462;6.698;2023-04-01T14:47:48;12.68;;;5.22;;
67861;SDS011;54665;51.462;6.698;2023-04-01T14:50:27;15.03;;;5.97;;
67861;SDS011;54665;51.462;6.698;2023-04-01T14:58:18;12.30;;;5.20;;
67861;SDS011;54665;51.462;6.698;2023-04-01T15:09:12;10.80;;;4.95;;
67861;SDS011;54665;51.462;6.698;2023-04-01T15:15:04;13.00;;;5.40;;
67861;SDS011;54665;51.462;6.698;2023-04-01T15:18:12;10.83;;;4.30;;
67861;SDS011;54665;51.462;6.698;2023-04-01T15:21:02;10.65;;;4.43;;
67861;SDS011;54665;51.462;6.698;2023-04-01T15:29:19;11.43;;;5.00;;
67861;SDS011;54665;51.462;6.698;2023-04-01T15:32:02;10.00;;;4.43;;
67861;SDS011;54665;51.462;6.698;2023-04-01T15:37:31;10.18;;;4.60;;
67861;SDS011;54665;51.462;6.698;2023-04-01T15:42:55;12.55;;;5.38;;
67861;SDS011;54665;51.462;6.698;2023-04-01T15:45:42;12.93;;;5.50;;
67861;SDS011;54665;51.462;6.698;2023-04-01T15:48:26;11.50;;;4.88;;
67861;SDS011;54665;51.462;6.698;2023-04-01T16:01:55;10.93;;;5.35;;
67861;SDS011;54665;51.462;6.698;2023-04-01T16:04:37;11.82;;;5.55;;
67861;SDS011;54665;51.462;6.698;2023-04-01T16:10:25;9.57;;;4.72;;
67861;SDS011;54665;51.462;6.698;2023-04-01T16:13:03;10.63;;;4.77;;
67861;SDS011;54665;51.462;6.698;2023-04-01T16:24:45;10.02;;;4.25;;
67861;SDS011;54665;51.462;6.698;2023-04-01T16:27:18;11.30;;;4.37;;
67861;SDS011;54665;51.462;6.698;2023-04-01T16:32:34;11.27;;;5.18;;
67861;SDS011;54665;51.462;6.698;2023-04-01T16:37:49;10.50;;;4.73;;
67861;SDS011;54665;51.462;6.698;2023-04-01T16:40:58;11.68;;;5.43;;
67861;SDS011;54665;51.462;6.698;2023-04-01T16:44:08;9.05;;;4.10;;
67861;SDS011;54665;51.462;6.698;2023-04-01T16:49:00;11.40;;;5.30;;
67861;SDS011;54665;51.462;6.698;2023-04-01T16:54:51;15.32;;;6.68;;
67861;SDS011;54665;51.462;6.698;2023-04-01T16:57:26;14.57;;;6.43;;
67861;SDS011;54665;51.462;6.698;2023-04-01T16:59:57;14.53;;;6.23;;
67861;SDS011;54665;51.462;6.698;2023-04-01T17:02:36;12.90;;;6.10;;
67861;SDS011;54665;51.462;6.698;2023-04-01T17:05:08;13.52;;;6.78;;
67861;SDS011;54665;51.462;6.698;2023-04-01T17:13:14;16.27;;;7.23;;
67861;SDS011;54665;51.462;6.698;2023-04-01T17:19:09;14.93;;;6.28;;
67861;SDS011;54665;51.462;6.698;2023-04-01T17:21:54;15.77;;;7.05;;
67861;SDS011;54665;51.462;6.698;2023-04-01T17:34:57;20.92;;;9.52;;
67861;SDS011;54665;51.462;6.698;2023-04-01T17:37:44;18.20;;;7.93;;
67861;SDS011;54665;51.462;6.698;2023-04-01T17:46:05;18.42;;;8.15;;
67861;SDS011;54665;51.462;6.698;2023-04-01T17:59:59;20.63;;;8.93;;
67861;SDS011;54665;51.462;6.698;2023-04-01T18:03:02;23.25;;;8.68;;
67861;SDS011;54665;51.462;6.698;2023-04-01T18:25:27;23.75;;;9.35;;
67861;SDS011;54665;51.462;6.698;2023-04-01T18:36:24;26.77;;;10.87;;
67861;SDS011;54665;51.462;6.698;2023-04-01T18:39:08;26.52;;;10.82;;
67861;SDS011;54665;51.462;6.698;2023-04-01T18:41:51;25.08;;;10.05;;
67861;SDS011;54665;51.462;6.698;2023-04-01T18:52:25;23.42;;;9.80;;
67861;SDS011;54665;51.462;6.698;2023-04-01T19:05:34;14.40;;;6.05;;
67861;SDS011;54665;51.462;6.698;2023-04-01T19:08:16;10.23;;;4.57;;
67861;SDS011;54665;51.462;6.698;2023-04-01T19:13:55;14.27;;;5.45;;
67861;SDS011;54665;51.462;6.698;2023-04-01T19:16:53;17.73;;;6.00;;
67861;SDS011;54665;51.462;6.698;2023-04-01T19:19:37;13.80;;;6.00;;
67861;SDS011;54665;51.462;6.698;2023-04-01T19:27:37;9.60;;;4.00;;
67861;SDS011;54665;51.462;6.698;2023-04-01T19:33:07;9.52;;;3.67;;
67861;SDS011;54665;51.462;6.698;2023-04-01T19:35:42;8.00;;;2.97;;
67861;SDS011;54665;51.462;6.698;2023-04-01T19:43:52;8.90;;;4.00;;
67861;SDS011;54665;51.462;6.698;2023-04-01T19:46:29;7.75;;;3.58;;
67861;SDS011;54665;51.462;6.698;2023-04-01T19:49:02;8.73;;;3.60;;
67861;SDS011;54665;51.462;6.698;2023-04-01T20:00:07;10.98;;;5.50;;
67861;SDS011;54665;51.462;6.698;2023-04-01T20:05:34;9.68;;;4.25;;
67861;SDS011;54665;51.462;6.698;2023-04-01T20:16:48;6.35;;;3.22;;
67861;SDS011;54665;51.462;6.698;2023-04-01T20:25:26;9.38;;;3.83;;
67861;SDS011;54665;51.462;6.698;2023-04-01T20:30:28;9.80;;;5.18;;
67861;SDS011;54665;51.462;6.698;2023-04-01T20:35:50;9.53;;;4.20;;
67861;SDS011;54665;51.462;6.698;2023-04-01T20:41:37;13.80;;;6.18;;
67861;SDS011;54665;51.462;6.698;2023-04-01T20:44:13;19.17;;;6.93;;
67861;SDS011;54665;51.462;6.698;2023-04-01T20:52:25;12.85;;;5.88;;
67861;SDS011;54665;51.462;6.698;2023-04-01T20:57:33;7.03;;;3.20;;
67861;SDS011;54665;51.462;6.698;2023-04-01T21:00:19;5.65;;;2.30;;
67861;SDS011;54665;51.462;6.698;2023-04-01T21:02:57;7.55;;;3.55;;
67861;SDS011;54665;51.462;6.698;2023-04-01T21:05:58;7.78;;;3.53;;
67861;SDS011;54665;51.462;6.698;2023-04-01T21:08:51;5.23;;;2.53;;
67861;SDS011;54665;51.462;6.698;2023-04-01T21:11:28;6.75;;;3.30;;
67861;SDS011;54665;51.462;6.698;2023-04-01T21:25:09;12.57;;;6.10;;
67861;SDS011;54665;51.462;6.698;2023-04-01T21:28:00;9.00;;;4.20;;
67861;SDS011;54665;51.462;6.698;2023-04-01T21:36:34;12.37;;;5.10;;
67861;SDS011;54665;51.462;6.698;2023-04-01T21:39:25;12.35;;;6.13;;
67861;SDS011;54665;51.462;6.698;2023-04-01T21:42:19;8.30;;;4.10;;
67861;SDS011;54665;51.462;6.698;2023-04-01T21:56:43;8.20;;;3.67;;
67861;SDS011;54665;51.462;6.698;2023-04-01T22:07:25;14.15;;;6.20;;
67861;SDS011;54665;51.462;6.698;2023-04-01T22:15:11;9.55;;;4.45;;
67861;SDS011;54665;51.462;6.698;2023-04-01T22:17:53;9.20;;;4.03;;
67861;SDS011;54665;51.462;6.698;2023-04-01T22:20:33;7.35;;;3.72;;
67861;SDS011;54665;51.462;6.698;2023-04-01T22:23:21;9.80;;;4.30;;
67861;SDS011;54665;51.462;6.698;2023-04-01T22:28:50;5.90;;;2.75;;
67861;SDS011;54665;51.462;6.698;2023-04-01T22:31:24;8.03;;;3.67;;
67861;SDS011;54665;51.462;6.698;2023-04-01T22:34:05;5.95;;;2.58;;
67861;SDS011;54665;51.462;6.698;2023-04-01T22:39:14;7.38;;;3.53;;
67861;SDS011;54665;51.462;6.698;2023-04-01T22:50:13;11.73;;;4.90;;
67861;SDS011;54665;51.462;6.698;2023-04-01T22:52:46;8.30;;;3.75;;
67861;SDS011;54665;51.462;6.698;2023-04-01T22:55:22;9.00;;;4.10;;
67861;SDS011;54665;51.462;6.698;2023-04-01T22:57:52;10.57;;;4.63;;
67861;SDS011;54665;51.462;6.698;2023-04-01T23:00:24;12.15;;;5.28;;
67861;SDS011;54665;51.462;6.698;2023-04-01T23:03:13;12.75;;;5.45;;
67861;SDS011;54665;51.462;6.698;2023-04-01T23:05:51;29.58;;;4.13;;
67861;SDS011;54665;51.462;6.698;2023-04-01T23:10:56;18.33;;;7.13;;
67861;SDS011;54665;51.462;6.698;2023-04-01T23:13:37;19.38;;;7.63;;
67861;SDS011;54665;51.462;6.698;2023-04-01T23:16:07;13.82;;;5.93;;
67861;SDS011;54665;51.462;6.698;2023-04-01T23:18:35;13.73;;;5.97;;
67861;SDS011;54665;51.462;6.698;2023-04-01T23:24:12;12.10;;;5.23;;
67861;SDS011;54665;51.462;6.698;2023-04-01T23:26:49;7.45;;;3.25;;
67861;SDS011;54665;51.462;6.698;2023-04-01T23:29:20;15.50;;;6.97;;
67861;SDS011;54665;51.462;6.698;2023-04-01T23:31:47;9.50;;;4.18;;
67861;SDS011;54665;51.462;6.698;2023-04-01T23:34:22;12.27;;;5.20;;
67861;SDS011;54665;51.462;6.698;2023-04-01T23:36:55;12.07;;;3.63;;
67861;SDS011;54665;51.462;6.698;2023-04-01T23:39:24;6.78;;;2.88;;
67861;SDS011;54665;51.462;6.698;2023-04-01T23:41:54;7.65;;;3.70;;
67861;SDS011;54665;51.462;6.698;2023-04-01T23:44:24;6.53;;;3.00;;
67861;SDS011;54665;51.462;6.698;2023-04-01T23:46:50;7.00;;;3.13;;
67861;SDS011;54665;51.462;6.698;2023-04-01T23:49:21;7.60;;;3.50;;
67861;SDS011;54665;51.462;6.698;2023-04-01T23:54:50;10.52;;;4.50;;
67861;SDS011;54665;51.462;6.698;2023-04-01T23:57:21;8.27;;;3.55;;
